Bob Sikes Airport
KCEW : now visible

Aeroporto :











RITROVATECI SU...

 
LOGIN :

Iscrizione | Disclaimer

   EN    FR    IT 

 









Sommario :    VFR   VFR Marginale   IFR   IFR Intensivo   IFR Molto Intensivo
Visibilità : 
Base nubi : 
>= 8 km
>= 3000ft
5 / 8 km
1000 / 3000 ft
1500m / 5 km
500 / 1000 ft
800 / 1500m
200 / 500 ft
< 800m
< 200 ft
Simboli :   Temporali  Nebbia  Neve Forte  Precipitazioni Forti  Vento > 20 kt







- Altitudine del aeroporto : 213 ft


KCEW - Bob Sikes

ULTIMO METAR :
  • 200553Z AUTO 29008KT 10SM CLR 10/07 A2989 RMK AO2 SLP119 60000 T01000067 10156 20100 402390100 51009

METARs OBSOLETI :
  • 200453Z AUTO 27007KT 10SM CLR 11/07 A2989 RMK AO2 SLP118 T01060072
  • 200353Z AUTO 27005KT 10SM SCT085 12/08 A2987 RMK AO2 SLP115 T01170078

TAF N/A
FIR KZJX / America del Nord



MetMap, La meteo Aeronautica in un colpo d'occhio ! - Copyright ORBIFLY Dicembre 2007 - Disclaimer

ORBIFLY MET'MAP TEAM :

Programmazione e sviluppo : Alexandra Zaïnal
Concezione e sviluppo : Baudouin d'Aumeries
Co-Programmazione e sviluppo : Marc-Olivier Méhu
Supporto tecnico e logistico : Manuel Goepfert
Aiuto per la traduzione : Arnaldo La Scala

Contatto : metmap@orbifly.com




FONTI E CREDITI :

   NOAA       Earth
Advisory